Time;durP1;ratioP1;P1;durP2;ratioP2;P2;SDS_P1;SDS_P2;PMS_P1;PMS_P2;Temp;Humidity;BMP_temperature;BMP_pressure;BME280_temperature;BME280_humidity;BME280_pressure;Samples;Min_cycle;Max_cycle;Signal;HPM_P1;HPM_P2
2023/04/09 00:01:12;;;;;;;10.63;9.63;;;;;;;7.16;100.00;98781.25;5130949;27;20203;-74
2023/04/09 00:03:39;;;;;;;10.77;9.77;;;;;;;7.22;100.00;98782.34;5131031;27;20222;-74
2023/04/09 00:06:06;;;;;;;10.30;9.30;;;;;;;7.24;100.00;98780.34;5130846;27;20203;-74
2023/04/09 00:08:32;;;;;;;10.47;9.47;;;;;;;7.22;100.00;98784.97;5130499;27;20662;-74
2023/04/09 00:10:59;;;;;;;9.70;8.80;;;;;;;7.24;100.00;98780.34;5130722;28;20203;-74
2023/04/09 00:13:26;;;;;;;11.63;9.67;;;;;;;7.19;100.00;98780.88;5130766;27;20223;-74
2023/04/09 00:15:52;;;;;;;9.97;9.07;;;;;;;7.15;100.00;98779.59;5130785;27;20202;-74
2023/04/09 00:18:19;;;;;;;10.03;9.03;;;;;;;7.19;100.00;98775.59;5130118;28;20230;-74
2023/04/09 00:20:45;;;;;;;9.40;8.50;;;;;;;7.14;100.00;98771.81;5130671;28;20198;-75
2023/04/09 00:23:11;;;;;;;9.53;8.63;;;;;;;7.11;100.00;98775.66;5130500;28;20271;-74
2023/04/09 00:25:38;;;;;;;8.70;7.80;;;;;;;7.15;100.00;98769.00;5130434;28;20203;-74
2023/04/09 00:28:04;;;;;;;9.77;8.80;;;;;;;7.18;100.00;98773.94;5130457;28;20304;-74
2023/04/09 00:30:31;;;;;;;10.10;9.20;;;;;;;7.17;100.00;98768.81;5117894;28;20211;-74
2023/04/09 00:32:58;;;;;;;10.23;9.23;;;;;;;7.04;100.00;98769.44;5116702;28;20223;-74
2023/04/09 00:35:24;;;;;;;9.73;8.73;;;;;;;6.97;100.00;98768.50;5116575;28;20207;-74
2023/04/09 00:37:51;;;;;;;10.57;9.57;;;;;;;6.97;100.00;98775.63;5116397;28;20222;-74
2023/04/09 00:40:17;;;;;;;9.73;8.73;;;;;;;6.95;100.00;98777.63;5116646;28;20199;-74
2023/04/09 00:42:44;;;;;;;10.77;9.67;;;;;;;6.99;100.00;98774.47;5116542;28;20249;-74
2023/04/09 00:45:11;;;;;;;10.53;9.40;;;;;;;6.94;100.00;98770.69;5116501;28;20207;-74
2023/04/09 00:47:37;;;;;;;9.30;8.50;;;;;;;6.97;100.00;98765.88;5116531;28;20199;-74
2023/04/09 00:50:04;;;;;;;10.27;8.90;;;;;;;6.96;100.00;98768.69;5116478;28;20203;-74
2023/04/09 00:52:30;;;;;;;9.90;8.90;;;;;;;6.86;100.00;98768.13;5115880;28;20706;-74
2023/04/09 00:55:00;;;;;;;9.90;8.93;;;;;;;6.89;100.00;98767.78;5116331;28;20206;-74
2023/04/09 00:57:27;;;;;;;9.43;8.53;;;;;;;6.87;100.00;98759.22;5115931;27;20681;-74
2023/04/09 00:59:54;;;;;;;9.77;8.77;;;;;;;6.84;100.00;98764.84;5115926;28;20680;-74
2023/04/09 01:02:20;;;;;;;9.60;8.73;;;;;;;6.81;100.00;98771.31;5115762;28;20227;-74
2023/04/09 01:04:47;;;;;;;10.10;9.10;;;;;;;6.80;100.00;98763.56;5116190;28;20207;-74
2023/04/09 01:07:42;;;;;;;9.53;8.67;;;;;;;6.86;100.00;98763.66;5115807;28;20207;-74
2023/04/09 01:10:12;;;;;;;9.90;9.00;;;;;;;6.87;100.00;98769.78;5116212;28;20191;-74
2023/04/09 01:13:01;;;;;;;9.83;8.83;;;;;;;6.90;100.00;98756.19;5115674;28;20230;-74
2023/04/09 01:15:35;;;;;;;10.37;9.37;;;;;;;6.97;100.00;98765.06;5116123;28;20203;-74
2023/04/09 01:18:23;;;;;;;10.80;9.80;;;;;;;6.95;100.00;98753.84;5115696;28;20222;-74
2023/04/09 01:21:00;;;;;;;11.17;10.03;;;;;;;7.01;100.00;98761.06;5115625;28;20191;-74
2023/04/09 01:23:57;;;;;;;11.37;10.27;;;;;;;7.04;100.00;98750.13;5113947;28;20701;-74
2023/04/09 01:26:37;;;;;;;12.27;11.07;;;;;;;7.12;100.00;98757.97;5089743;28;20210;-74
2023/04/09 01:29:07;;;;;;;12.00;10.80;;;;;;;7.17;100.00;98756.44;5115481;28;20192;-74
2023/04/09 01:31:38;;;;;;;11.33;10.23;;;;;;;7.22;100.00;98759.38;5114197;28;20206;-74
2023/04/09 01:34:07;;;;;;;12.20;10.90;;;;;;;7.21;100.00;98748.97;5115315;28;20245;-74
2023/04/09 01:36:35;;;;;;;11.83;10.73;;;;;;;7.28;100.00;98758.63;5114039;28;20213;-75
2023/04/09 01:39:02;;;;;;;9.83;8.93;;;;;;;7.16;100.00;98761.91;5115435;28;20568;-75
2023/04/09 01:41:32;;;;;;;10.13;9.13;;;;;;;7.00;100.00;98762.88;5114029;28;20207;-75
2023/04/09 01:44:00;;;;;;;9.83;8.87;;;;;;;6.90;100.00;98764.97;5115244;28;20230;-75
2023/04/09 01:46:27;;;;;;;10.67;9.67;;;;;;;6.90;100.00;98761.47;5113837;28;20670;-75
2023/04/09 01:48:54;;;;;;;10.77;9.77;;;;;;;6.90;100.00;98762.31;5115329;28;20204;-75
2023/04/09 01:51:21;;;;;;;9.67;8.70;;;;;;;6.91;100.00;98757.81;5115358;28;20565;-75
2023/04/09 01:53:48;;;;;;;11.50;9.67;;;;;;;6.94;100.00;98760.97;5115132;28;20227;-75
2023/04/09 01:56:15;;;;;;;10.13;9.10;;;;;;;6.93;100.00;98763.78;5115254;28;20199;-75
2023/04/09 01:58:41;;;;;;;9.87;8.73;;;;;;;6.96;100.00;98761.59;5115044;28;20246;-74
2023/04/09 02:01:21;;;;;;;9.53;8.60;;;;;;;7.03;100.00;98761.69;5115117;28;20203;-74
2023/04/09 02:03:53;;;;;;;10.57;9.47;;;;;;;6.97;100.00;98757.13;5114914;28;20219;-75
2023/04/09 02:06:37;;;;;;;10.17;9.23;;;;;;;6.85;100.00;98761.19;5115941;28;20191;-75
2023/04/09 02:09:07;;;;;;;11.33;10.10;;;;;;;6.80;100.00;98766.19;5115461;28;20179;-75
2023/04/09 02:11:38;;;;;;;12.87;10.40;;;;;;;6.91;100.00;98765.75;5113437;28;20214;-75
2023/04/09 02:14:07;;;;;;;11.23;9.53;;;;;;;6.95;100.00;98770.53;5114860;28;20233;-75
2023/04/09 02:16:34;;;;;;;11.07;9.80;;;;;;;6.93;100.00;98761.13;5114532;28;20206;-75
2023/04/09 02:19:00;;;;;;;10.77;9.87;;;;;;;6.89;100.00;98751.91;5114177;28;20227;-75
2023/04/09 02:21:28;;;;;;;11.20;10.10;;;;;;;6.93;100.00;98751.34;5114616;28;20208;-75
2023/04/09 02:23:55;;;;;;;11.90;10.70;;;;;;;7.01;100.00;98753.13;5114497;28;20223;-75
2023/04/09 02:26:22;;;;;;;12.80;10.73;;;;;;;6.98;100.00;98753.47;5114604;28;20283;-75
2023/04/09 02:28:49;;;;;;;11.63;10.53;;;;;;;6.97;100.00;98751.84;5114542;28;20199;-75
2023/04/09 02:31:16;;;;;;;11.83;10.30;;;;;;;6.88;100.00;98756.38;5114486;28;20210;-75
2023/04/09 02:33:42;;;;;;;11.40;10.30;;;;;;;6.91;100.00;98761.31;5114458;28;20227;-75
2023/04/09 02:36:12;;;;;;;12.23;11.00;;;;;;;6.84;100.00;98755.06;5114129;28;20203;-75
2023/04/09 02:38:42;;;;;;;11.70;10.63;;;;;;;6.71;100.00;98746.97;5114221;28;20609;-75
2023/04/09 02:41:09;;;;;;;12.07;11.00;;;;;;;6.85;100.00;98750.63;5114390;28;20207;-75
2023/04/09 02:43:35;;;;;;;12.70;11.50;;;;;;;6.84;100.00;98754.28;5114289;28;20227;-75
2023/04/09 02:46:02;;;;;;;13.53;11.17;;;;;;;6.71;100.00;98754.06;5113922;28;20208;-75
2023/04/09 02:48:28;;;;;;;11.67;10.57;;;;;;;6.70;100.00;98752.41;5113946;28;20199;-75
2023/04/09 02:50:55;;;;;;;12.03;10.83;;;;;;;6.59;100.00;98756.28;5114123;28;20202;-75
2023/04/09 02:53:21;;;;;;;12.03;10.93;;;;;;;6.68;100.00;98757.03;5113727;28;20583;-75
2023/04/09 02:55:47;;;;;;;12.67;11.40;;;;;;;6.66;100.00;98749.28;5113722;28;20278;-75
2023/04/09 02:58:14;;;;;;;13.60;11.70;;;;;;;6.62;100.00;98753.31;5113736;28;20588;-75
2023/04/09 03:00:40;;;;;;;12.37;11.27;;;;;;;6.57;100.00;98754.81;5113557;28;20203;-75
2023/04/09 03:03:07;;;;;;;12.50;11.30;;;;;;;6.58;100.00;98745.91;5113669;28;20583;-75
2023/04/09 03:05:33;;;;;;;12.73;11.53;;;;;;;6.55;100.00;98747.06;5113883;28;20215;-75
2023/04/09 03:08:00;;;;;;;12.53;11.27;;;;;;;6.61;100.00;98742.91;5113928;28;20247;-75
2023/04/09 03:10:26;;;;;;;12.50;11.37;;;;;;;6.51;100.00;98745.78;5113740;28;20203;-74
2023/04/09 03:12:52;;;;;;;12.67;11.37;;;;;;;6.54;100.00;98747.25;5113752;28;20559;-74
2023/04/09 03:15:19;;;;;;;13.17;11.97;;;;;;;6.59;100.00;98736.97;5113835;28;20199;-74
2023/04/09 03:17:45;;;;;;;12.40;10.93;;;;;;;6.59;100.00;98740.44;5113639;28;20588;-74
2023/04/09 03:20:11;;;;;;;12.97;11.67;;;;;;;6.59;100.00;98739.59;5113642;28;20233;-74
2023/04/09 03:22:39;;;;;;;12.27;11.07;;;;;;;6.56;100.00;98738.13;5113758;28;20219;-74
2023/04/09 03:25:05;;;;;;;12.27;11.07;;;;;;;6.58;100.00;98741.44;5113552;28;20677;-75
2023/04/09 03:27:32;;;;;;;12.23;11.03;;;;;;;6.59;100.00;98735.16;5114298;28;20210;-74
2023/04/09 03:29:59;;;;;;;12.50;11.20;;;;;;;6.59;100.00;98731.69;5113416;28;20203;-74
2023/04/09 03:32:25;;;;;;;12.73;11.43;;;;;;;6.58;100.00;98733.53;5113550;28;20261;-74
2023/04/09 03:34:51;;;;;;;12.40;11.20;;;;;;;6.59;100.00;98734.31;5113631;28;20199;-74
2023/04/09 03:37:18;;;;;;;13.63;12.23;;;;;;;6.60;100.00;98736.00;5113271;28;20666;-74
2023/04/09 03:39:44;;;;;;;13.53;12.17;;;;;;;6.65;100.00;98733.63;5113523;28;20568;-74
2023/04/09 03:42:10;;;;;;;13.10;11.80;;;;;;;6.64;100.00;98737.25;5113443;28;20294;-74
2023/04/09 03:44:37;;;;;;;12.53;11.33;;;;;;;6.66;100.00;98741.34;5113224;28;20256;-74
2023/04/09 03:47:03;;;;;;;13.20;11.73;;;;;;;6.63;100.00;98740.91;5113269;28;20207;-74
2023/04/09 03:49:29;;;;;;;12.27;11.17;;;;;;;6.66;100.00;98732.63;5113161;28;20545;-74
2023/04/09 03:51:56;;;;;;;13.07;11.77;;;;;;;6.55;100.00;98733.03;5113255;28;20210;-74
2023/04/09 03:54:22;;;;;;;12.77;11.50;;;;;;;6.59;100.00;98734.31;5113438;28;20209;-74
2023/04/09 03:56:49;;;;;;;11.90;10.77;;;;;;;6.54;100.00;98734.03;5113313;28;20209;-74
2023/04/09 03:59:15;;;;;;;11.80;10.70;;;;;;;6.58;100.00;98732.69;5113067;28;20226;-74
2023/04/09 04:01:41;;;;;;;12.67;11.47;;;;;;;6.49;100.00;98733.75;5113327;28;20206;-75
2023/04/09 04:04:08;;;;;;;12.70;11.03;;;;;;;6.45;100.00;98730.66;5113525;28;20225;-75
2023/04/09 04:06:35;;;;;;;11.47;10.37;;;;;;;6.43;100.00;98729.19;5116695;28;20690;-75
2023/04/09 04:09:01;;;;;;;10.40;9.40;;;;;;;6.46;100.00;98731.44;5117170;28;20199;-75
2023/04/09 04:11:27;;;;;;;12.73;11.43;;;;;;;6.46;100.00;98731.44;5117181;28;20209;-75
2023/04/09 04:13:54;;;;;;;12.07;10.87;;;;;;;6.56;100.00;98730.22;5116948;28;20233;-75
2023/04/09 04:16:21;;;;;;;11.37;10.23;;;;;;;6.56;100.00;98734.69;5117091;28;20221;-75
2023/04/09 04:18:47;;;;;;;11.90;10.60;;;;;;;6.51;100.00;98735.22;5117471;28;20223;-75
2023/04/09 04:21:14;;;;;;;11.30;10.20;;;;;;;6.45;100.00;98733.28;5117070;28;20611;-75
2023/04/09 04:23:41;;;;;;;10.23;9.23;;;;;;;6.49;100.00;98739.88;5116576;28;20805;-75
2023/04/09 04:26:10;;;;;;;11.03;9.93;;;;;;;6.50;100.00;98738.03;5116830;28;20203;-75
2023/04/09 04:28:40;;;;;;;10.63;9.53;;;;;;;6.46;100.00;98745.50;5116447;28;20203;-75
2023/04/09 04:31:13;;;;;;;10.17;9.17;;;;;;;6.39;100.00;98749.84;5116509;28;20652;-75
2023/04/09 04:33:41;;;;;;;11.00;10.00;;;;;;;6.37;100.00;98746.53;5116711;28;20636;-74
2023/04/09 04:36:12;;;;;;;11.40;10.30;;;;;;;6.40;100.00;98748.84;5116691;28;20206;-74
2023/04/09 04:38:40;;;;;;;10.10;9.10;;;;;;;6.39;100.00;98746.38;5116319;28;20229;-74
2023/04/09 04:41:06;;;;;;;10.23;9.20;;;;;;;6.44;100.00;98747.50;5116290;28;20658;-74
2023/04/09 04:43:32;;;;;;;11.00;9.20;;;;;;;6.39;100.00;98752.47;5116480;28;20223;-75
2023/04/09 04:45:59;;;;;;;10.30;9.30;;;;;;;6.43;100.00;98755.59;5116215;28;20207;-75
2023/04/09 04:48:26;;;;;;;10.10;9.10;;;;;;;6.35;100.00;98750.34;5116559;28;20256;-75
2023/04/09 04:50:57;;;;;;;10.67;9.67;;;;;;;6.43;100.00;98755.59;5116386;28;20211;-75
2023/04/09 04:53:24;;;;;;;10.80;9.80;;;;;;;6.37;100.00;98757.09;5116421;28;20337;-74
2023/04/09 04:55:50;;;;;;;10.70;9.70;;;;;;;6.41;100.00;98747.00;5116463;28;20204;-74
2023/04/09 04:58:17;;;;;;;11.43;10.33;;;;;;;6.35;100.00;98753.00;5116464;28;20203;-75
2023/04/09 05:00:43;;;;;;;11.50;10.40;;;;;;;6.33;100.00;98753.16;5116368;28;20223;-75
2023/04/09 05:03:10;;;;;;;11.87;10.50;;;;;;;6.37;100.00;98756.28;5115902;28;20227;-74
2023/04/09 05:05:36;;;;;;;11.77;10.40;;;;;;;6.51;100.00;98761.63;5116255;28;20203;-75
2023/04/09 05:08:03;;;;;;;10.97;9.87;;;;;;;6.40;100.00;98764.69;5116039;28;20203;-75
2023/04/09 05:10:29;;;;;;;10.77;9.67;;;;;;;6.41;100.00;98760.22;5116179;28;20203;-74
2023/04/09 05:12:56;;;;;;;11.57;10.23;;;;;;;6.38;100.00;98760.59;5116345;28;20223;-74
2023/04/09 05:15:22;;;;;;;11.13;10.13;;;;;;;6.44;100.00;98759.88;5115701;28;20207;-74
2023/04/09 05:17:49;;;;;;;10.60;9.60;;;;;;;6.38;100.00;98758.75;5115677;28;20222;-74
2023/04/09 05:20:15;;;;;;;11.07;10.07;;;;;;;6.37;100.00;98762.38;5115904;28;20261;-75
2023/04/09 05:22:41;;;;;;;10.80;9.80;;;;;;;6.39;100.00;98756.94;5115849;28;20233;-75
2023/04/09 05:25:09;;;;;;;10.50;9.57;;;;;;;6.43;100.00;98755.59;5115812;28;20199;-74
2023/04/09 05:27:35;;;;;;;11.43;10.23;;;;;;;6.47;100.00;98765.63;5115853;28;20298;-74
2023/04/09 05:30:02;;;;;;;11.63;10.43;;;;;;;6.53;100.00;98761.47;5115754;28;20549;-75
2023/04/09 05:32:28;;;;;;;11.47;10.13;;;;;;;6.59;100.00;98768.66;5115633;28;20245;-74
2023/04/09 05:34:55;;;;;;;11.57;10.47;;;;;;;6.52;100.00;98775.66;5115632;28;20585;-74
2023/04/09 05:37:21;;;;;;;12.17;10.23;;;;;;;6.64;100.00;98774.22;5115518;28;20220;-74
2023/04/09 05:39:47;;;;;;;11.47;10.37;;;;;;;6.60;100.00;98773.78;5115491;28;20219;-74
2023/04/09 05:42:14;;;;;;;11.53;10.43;;;;;;;6.59;100.00;98771.31;5115359;28;20219;-74
2023/04/09 05:44:40;;;;;;;12.13;10.63;;;;;;;6.54;100.00;98774.50;5115129;28;20238;-74
2023/04/09 05:47:07;;;;;;;13.30;11.23;;;;;;;6.71;100.00;98765.47;5115028;28;20207;-74
2023/04/09 05:49:33;;;;;;;11.97;10.77;;;;;;;6.78;100.00;98773.50;5115051;28;20655;-74
2023/04/09 05:52:00;;;;;;;12.70;11.50;;;;;;;6.80;100.00;98774.97;5114955;28;20681;-74
2023/04/09 05:54:26;;;;;;;12.97;11.73;;;;;;;6.92;100.00;98776.16;5115252;28;20264;-74
2023/04/09 05:56:52;;;;;;;13.57;12.23;;;;;;;6.95;100.00;98773.16;5115225;28;20210;-74
2023/04/09 05:59:19;;;;;;;13.60;12.30;;;;;;;6.99;100.00;98770.97;5114774;28;20219;-75
2023/04/09 06:01:45;;;;;;;13.33;11.93;;;;;;;7.03;100.00;98766.97;5114812;28;20657;-75
2023/04/09 06:04:11;;;;;;;13.27;11.97;;;;;;;7.34;100.00;98770.31;5114935;28;20588;-75
2023/04/09 06:06:38;;;;;;;12.80;11.27;;;;;;;7.50;100.00;98767.47;5114947;28;20207;-74
2023/04/09 06:09:05;;;;;;;12.63;11.33;;;;;;;7.49;100.00;98768.50;5114949;28;20203;-74
2023/04/09 06:11:32;;;;;;;12.30;10.90;;;;;;;7.80;100.00;98775.25;5114961;28;20200;-74
2023/04/09 06:13:58;;;;;;;12.13;10.87;;;;;;;8.16;100.00;98776.13;5115358;28;20234;-74
2023/04/09 06:16:25;;;;;;;12.23;11.03;;;;;;;8.23;100.00;98777.03;5114758;28;20203;-74
2023/04/09 06:18:53;;;;;;;11.43;10.33;;;;;;;8.15;100.00;98779.75;5114330;28;20633;-74
2023/04/09 06:21:20;;;;;;;11.00;9.93;;;;;;;8.40;100.00;98772.31;5114632;28;20543;-75
2023/04/09 06:23:46;;;;;;;11.00;9.90;;;;;;;8.61;100.00;98773.19;5114577;28;20249;-74
2023/04/09 06:26:12;;;;;;;11.43;10.23;;;;;;;8.20;100.00;98781.84;5114668;28;20199;-74
2023/04/09 06:28:39;;;;;;;11.13;10.10;;;;;;;8.31;100.00;98770.78;5114084;28;20204;-74
2023/04/09 06:31:06;;;;;;;11.00;9.93;;;;;;;8.23;100.00;98768.28;5114297;28;20686;-75
2023/04/09 06:33:32;;;;;;;11.47;10.27;;;;;;;8.08;100.00;98773.56;5114126;28;20255;-74
2023/04/09 06:35:58;;;;;;;12.43;11.23;;;;;;;8.06;100.00;98775.56;5114210;28;20230;-75
2023/04/09 06:38:25;;;;;;;12.40;11.20;;;;;;;8.05;100.00;98773.13;5114117;28;20306;-74
2023/04/09 06:40:51;;;;;;;12.20;11.03;;;;;;;8.30;100.00;98779.75;5113844;28;20670;-74
2023/04/09 06:43:18;;;;;;;10.73;9.83;;;;;;;8.35;100.00;98780.84;5114161;28;20223;-74
2023/04/09 06:45:44;;;;;;;10.67;9.67;;;;;;;8.37;100.00;98775.38;5114073;28;20207;-74
2023/04/09 06:48:11;;;;;;;12.97;10.30;;;;;;;8.61;100.00;98785.59;5113735;28;20203;-74
2023/04/09 06:50:37;;;;;;;11.10;10.10;;;;;;;8.58;100.00;98781.50;5114171;28;20202;-74
2023/04/09 06:53:06;;;;;;;11.37;10.23;;;;;;;8.70;100.00;98781.81;5113702;28;20305;-74
2023/04/09 06:55:32;;;;;;;10.63;9.67;;;;;;;8.61;100.00;98786.44;5114089;28;20209;-74
2023/04/09 06:58:00;;;;;;;10.47;9.47;;;;;;;8.58;100.00;98784.16;5114516;28;20199;-74
2023/04/09 07:00:26;;;;;;;10.50;9.53;;;;;;;8.52;100.00;98792.03;5110725;28;20250;-74
2023/04/09 07:02:53;;;;;;;10.90;9.80;;;;;;;8.56;100.00;98790.66;5113667;28;20219;-74
2023/04/09 07:05:20;;;;;;;11.53;10.43;;;;;;;8.71;97.93;98786.09;5113927;28;20203;-74
2023/04/09 07:07:46;;;;;;;10.90;9.80;;;;;;;8.86;99.73;98786.84;5113557;28;20670;-74
2023/04/09 07:10:13;;;;;;;10.80;9.70;;;;;;;8.79;99.12;98789.44;5113787;28;20225;-74
2023/04/09 07:12:39;;;;;;;10.90;9.90;;;;;;;8.97;93.61;98795.09;5113878;28;20276;-74
2023/04/09 07:15:06;;;;;;;9.63;8.83;;;;;;;9.00;92.93;98794.72;5113937;28;20205;-74
2023/04/09 07:17:34;;;;;;;10.40;9.43;;;;;;;8.92;95.86;98794.84;5112948;28;20211;-75
2023/04/09 07:20:00;;;;;;;10.20;9.30;;;;;;;8.92;96.11;98792.22;5113107;28;20230;-75
2023/04/09 07:22:29;;;;;;;10.47;9.57;;;;;;;9.00;94.54;98789.44;5113650;28;20227;-74
2023/04/09 07:24:55;;;;;;;11.37;10.27;;;;;;;9.25;94.19;98790.66;5113391;28;20674;-75
2023/04/09 07:27:23;;;;;;;10.20;9.20;;;;;;;9.43;92.54;98791.00;5113642;28;20206;-75
2023/04/09 07:29:50;;;;;;;9.93;9.03;;;;;;;9.23;94.63;98792.69;5113584;28;20227;-74
2023/04/09 07:32:17;;;;;;;11.00;10.00;;;;;;;9.00;93.74;98794.72;5113545;28;20223;-74
2023/04/09 07:34:44;;;;;;;9.07;8.27;;;;;;;9.31;89.68;98795.19;5113420;28;20290;-75
2023/04/09 07:37:11;;;;;;;9.10;8.20;;;;;;;9.49;87.87;98790.22;5113525;28;20199;-75
2023/04/09 07:39:37;;;;;;;9.23;8.33;;;;;;;9.56;86.40;98784.97;5114822;28;20304;-74
2023/04/09 07:42:05;;;;;;;8.20;7.47;;;;;;;9.41;88.42;98794.88;5117408;28;20203;-75
2023/04/09 07:44:36;;;;;;;8.53;7.83;;;;;;;9.62;86.52;98792.13;5117619;28;20206;-75
2023/04/09 07:47:06;;;;;;;8.60;7.73;;;;;;;9.69;83.78;98803.63;5117549;28;20202;-75
2023/04/09 07:49:35;;;;;;;8.80;8.00;;;;;;;9.87;88.90;98809.25;5117328;28;20199;-75
2023/04/09 07:52:01;;;;;;;8.57;7.80;;;;;;;9.67;83.81;98817.09;5117537;28;20199;-75
2023/04/09 07:54:28;;;;;;;8.57;7.77;;;;;;;9.35;86.58;98811.53;5117520;27;20199;-75
2023/04/09 07:56:55;;;;;;;8.90;8.10;;;;;;;9.38;87.01;98819.13;5117489;28;20207;-75
2023/04/09 07:59:21;;;;;;;7.57;6.87;;;;;;;9.57;82.39;98813.97;5117360;28;20203;-75
2023/04/09 08:01:48;;;;;;;6.60;6.00;;;;;;;9.82;80.66;98809.81;5117748;28;20207;-75
2023/04/09 08:04:14;;;;;;;6.43;5.90;;;;;;;10.23;78.25;98815.97;5116910;28;20223;-76
2023/04/09 08:06:40;;;;;;;6.47;5.87;;;;;;;10.66;75.41;98811.22;5116787;28;20203;-74
2023/04/09 08:09:07;;;;;;;6.33;5.83;;;;;;;10.57;74.16;98815.09;5117262;28;20225;-76
2023/04/09 08:11:34;;;;;;;7.20;6.50;;;;;;;10.72;76.51;98813.91;5117287;28;20287;-75
2023/04/09 08:14:03;;;;;;;7.53;6.93;;;;;;;10.50;74.59;98809.75;5117056;28;20313;-75
2023/04/09 08:16:29;;;;;;;7.63;6.97;;;;;;;10.43;75.23;98814.22;5117149;28;20213;-75
2023/04/09 08:18:57;;;;;;;7.47;6.80;;;;;;;10.52;77.19;98806.88;5116755;28;20611;-75
2023/04/09 08:21:23;;;;;;;7.10;6.50;;;;;;;10.52;76.48;98809.53;5116606;28;20219;-75
2023/04/09 08:23:50;;;;;;;6.87;6.27;;;;;;;10.48;75.67;98800.34;5116915;28;20223;-75
2023/04/09 08:26:16;;;;;;;6.83;6.13;;;;;;;10.44;75.49;98809.72;5115952;28;20268;-75
2023/04/09 08:28:43;;;;;;;7.63;6.93;;;;;;;10.31;76.26;98809.66;5116165;28;20248;-75
2023/04/09 08:31:09;;;;;;;6.37;5.83;;;;;;;10.21;75.60;98814.53;5116770;28;20206;-74
2023/04/09 08:33:36;;;;;;;6.80;6.20;;;;;;;10.27;76.04;98814.56;5116256;28;20227;-75
2023/04/09 08:36:07;;;;;;;6.37;5.77;;;;;;;10.19;73.73;98822.72;5116281;28;20666;-74
2023/04/09 08:38:33;;;;;;;6.23;5.63;;;;;;;9.85;76.27;98828.03;5116930;28;20184;-75
2023/04/09 08:41:00;;;;;;;6.83;6.23;;;;;;;9.95;76.17;98817.03;5116145;28;20229;-75
2023/04/09 08:43:28;;;;;;;7.00;6.30;;;;;;;10.22;75.97;98816.19;5115980;28;20238;-75
2023/04/09 08:45:56;;;;;;;6.73;6.13;;;;;;;10.25;75.18;98815.78;5115503;28;20214;-76
2023/04/09 08:48:24;;;;;;;6.10;5.60;;;;;;;10.33;73.97;98820.94;5116290;28;20199;-75
2023/04/09 08:50:51;;;;;;;6.80;6.20;;;;;;;10.18;73.85;98817.63;5115943;28;20207;-75
2023/04/09 08:53:17;;;;;;;5.87;5.37;;;;;;;10.26;73.21;98820.09;5116119;28;20250;-75
2023/04/09 08:55:47;;;;;;;6.20;5.70;;;;;;;10.07;73.56;98824.31;5116001;27;20205;-75
2023/04/09 08:58:13;;;;;;;6.63;6.07;;;;;;;10.02;73.43;98820.56;5116327;27;20203;-76
2023/04/09 09:00:40;;;;;;;6.30;5.70;;;;;;;10.19;73.75;98822.72;5116180;28;20562;-75
2023/04/09 09:03:09;;;;;;;5.90;5.40;;;;;;;10.28;72.95;98824.19;5115904;28;20227;-75
2023/04/09 09:05:43;;;;;;;4.87;4.47;;;;;;;10.56;65.97;98819.59;5116209;28;20207;-75
2023/04/09 09:08:12;;;;;;;3.80;3.47;;;;;;;10.75;58.63;98829.47;5116116;28;20190;-75
2023/04/09 09:10:45;;;;;;;3.97;3.67;;;;;;;10.71;60.90;98830.06;5115620;28;20539;-75
2023/04/09 09:13:20;;;;;;;3.93;3.63;;;;;;;10.51;60.67;98837.16;5115929;27;20234;-75
2023/04/09 09:15:49;;;;;;;3.63;3.33;;;;;;;10.46;61.01;98836.94;5115944;28;20214;-75
2023/04/09 09:18:16;;;;;;;4.87;3.83;;;;;;;10.49;62.35;98841.84;5115451;28;20264;-76
2023/04/09 09:20:43;;;;;;;4.83;4.43;;;;;;;10.56;66.42;98827.56;5115448;28;20716;-75
2023/04/09 09:23:09;;;;;;;5.80;5.30;;;;;;;10.56;68.51;98830.25;5115764;28;20231;-75
2023/04/09 09:25:43;;;;;;;5.97;5.47;;;;;;;10.88;67.98;98828.66;5115538;28;20207;-75
2023/04/09 09:28:11;;;;;;;7.07;6.03;;;;;;;10.80;69.13;98835.00;5115272;28;20214;-75
2023/04/09 09:30:39;;;;;;;7.13;6.37;;;;;;;10.76;68.70;98839.06;5115804;28;20195;-76
2023/04/09 09:33:08;;;;;;;6.73;5.93;;;;;;;10.73;69.18;98836.00;5115688;28;20254;-75
2023/04/09 09:35:52;;;;;;;6.13;5.63;;;;;;;10.81;68.16;98836.63;5115515;28;20214;-75
2023/04/09 09:38:20;;;;;;;5.80;5.30;;;;;;;10.67;69.44;98842.94;5115200;28;20683;-75
2023/04/09 09:40:47;;;;;;;6.20;5.70;;;;;;;10.70;70.96;98837.22;5114992;28;20701;-75
2023/04/09 09:43:14;;;;;;;6.43;5.87;;;;;;;10.81;69.91;98843.78;5114953;28;20233;-75
2023/04/09 09:45:42;;;;;;;7.47;6.77;;;;;;;11.00;69.32;98835.03;5115276;28;20299;-75
2023/04/09 09:48:11;;;;;;;6.37;5.77;;;;;;;11.00;66.54;98843.81;5115498;28;20298;-75
2023/04/09 09:50:40;;;;;;;6.40;5.90;;;;;;;11.22;67.56;98831.19;5115314;28;20200;-75
2023/04/09 09:53:08;;;;;;;6.33;5.83;;;;;;;11.59;65.65;98833.22;5115963;28;20261;-75
2023/04/09 09:55:43;;;;;;;6.47;5.50;;;;;;;11.76;65.65;98830.97;5114848;28;20203;-75
2023/04/09 09:58:19;;;;;;;6.03;5.53;;;;;;;11.97;62.99;98826.19;5115609;28;20191;-75
2023/04/09 10:00:47;;;;;;;6.63;6.03;;;;;;;11.99;62.67;98818.84;5114258;28;20656;-75
2023/04/09 10:03:19;;;;;;;6.83;6.23;;;;;;;12.48;60.98;98813.69;5114141;28;20325;-75
2023/04/09 10:05:48;;;;;;;7.10;6.50;;;;;;;12.75;60.70;98825.88;5114320;28;20736;-75
2023/04/09 10:08:15;;;;;;;8.53;6.07;;;;;;;12.88;59.84;98817.78;5114483;28;20213;-75
2023/04/09 10:10:42;;;;;;;7.00;6.40;;;;;;;13.16;58.37;98826.25;5114683;28;20640;-76
2023/04/09 10:13:15;;;;;;;6.17;5.63;;;;;;;13.09;57.25;98833.50;5114723;28;20241;-75
2023/04/09 10:15:44;;;;;;;5.20;4.67;;;;;;;13.32;55.82;98828.41;5115156;28;20191;-75
2023/04/09 10:18:10;;;;;;;4.93;4.53;;;;;;;13.03;56.04;98828.22;5114364;28;20321;-72
2023/04/09 10:20:43;;;;;;;5.03;4.63;;;;;;;12.90;54.49;98823.75;5114091;28;20226;-74
2023/04/09 10:23:19;;;;;;;5.03;4.63;;;;;;;12.95;54.75;98820.41;5113058;28;20237;-74
2023/04/09 10:25:46;;;;;;;5.77;5.27;;;;;;;13.26;53.54;98829.28;5114078;28;20191;-75
2023/04/09 10:28:18;;;;;;;6.03;5.53;;;;;;;13.56;52.32;98824.91;5114526;28;20212;-75
2023/04/09 10:30:45;;;;;;;5.33;4.93;;;;;;;13.37;55.50;98817.06;5114382;28;20195;-74
2023/04/09 10:33:18;;;;;;;4.87;4.47;;;;;;;13.50;55.25;98807.09;5114318;27;20254;-75
2023/04/09 10:35:47;;;;;;;4.20;3.90;;;;;;;13.53;49.40;98820.00;5114551;28;20183;-75
2023/04/09 10:38:15;;;;;;;3.87;3.57;;;;;;;13.25;49.90;98816.16;5114013;28;20203;-74
2023/04/09 10:40:48;;;;;;;4.80;4.40;;;;;;;13.43;50.99;98816.19;5112518;28;20215;-75
2023/04/09 10:43:18;;;;;;;4.60;4.20;;;;;;;13.40;49.97;98820.13;5112072;28;20309;-74
2023/04/09 10:45:47;;;;;;;4.23;3.93;;;;;;;13.64;50.50;98818.47;5114328;28;20223;-74
2023/04/09 10:48:14;;;;;;;4.80;4.50;;;;;;;13.68;50.01;98809.78;5113263;28;20203;-74
2023/04/09 10:50:44;;;;;;;4.73;4.33;;;;;;;13.85;51.72;98812.72;5112964;27;20199;-74
2023/04/09 10:53:24;;;;;;;3.70;3.40;;;;;;;13.99;49.88;98799.00;5113725;28;20706;-74
2023/04/09 10:55:52;;;;;;;3.83;3.53;;;;;;;14.24;47.82;98801.63;5113871;28;20218;-74
2023/04/09 10:58:19;;;;;;;3.40;3.20;;;;;;;13.40;46.76;98803.28;5112813;28;20214;-75
2023/04/09 11:00:48;;;;;;;4.20;3.80;;;;;;;13.36;47.01;98813.59;5113770;28;20241;-75
2023/04/09 11:03:17;;;;;;;3.90;3.50;;;;;;;13.96;46.82;98796.75;5113955;28;20226;-74
2023/04/09 11:06:09;;;;;;;3.83;3.53;;;;;;;13.95;46.76;98802.31;5113822;28;20217;-75
2023/04/09 11:08:36;;;;;;;3.43;3.13;;;;;;;14.22;46.10;98795.66;5113333;28;20634;-73
2023/04/09 11:11:03;;;;;;;2.87;2.67;;;;;;;14.30;43.91;98782.00;5113442;28;20666;-74
2023/04/09 11:13:31;;;;;;;3.50;3.20;;;;;;;13.86;47.22;98792.97;5113439;28;20230;-74
2023/04/09 11:15:59;;;;;;;3.03;2.80;;;;;;;14.20;44.92;98790.53;5113605;28;20199;-75
2023/04/09 11:18:27;;;;;;;2.90;2.70;;;;;;;14.15;43.78;98777.00;5113376;28;20210;-75
2023/04/09 11:20:59;;;;;;;2.60;2.40;;;;;;;14.49;42.30;98783.59;5113603;28;20306;-74
2023/04/09 11:23:25;;;;;;;2.80;2.60;;;;;;;14.21;42.29;98780.66;5113371;28;20713;-75
2023/04/09 11:25:53;;;;;;;2.73;2.53;;;;;;;14.23;42.70;98783.91;5113370;28;20215;-75
2023/04/09 11:28:21;;;;;;;3.40;3.20;;;;;;;14.09;44.28;98777.91;5113607;28;20203;-75
2023/04/09 11:30:47;;;;;;;3.30;3.10;;;;;;;14.19;44.41;98772.00;5113383;28;20659;-75